sensor_id;sensor_type;location;lat;lon;timestamp;P1;durP1;ratioP1;P2;durP2;ratioP2
69750;SDS011;57335;52.288;6.056;2022-07-29T00:02:12;9.63;;;2.53;;
69750;SDS011;57335;52.288;6.056;2022-07-29T00:04:39;5.28;;;1.90;;
69750;SDS011;57335;52.288;6.056;2022-07-29T00:07:05;3.72;;;1.70;;
69750;SDS011;57335;52.288;6.056;2022-07-29T00:09:32;4.68;;;1.80;;
69750;SDS011;57335;52.288;6.056;2022-07-29T00:12:15;5.38;;;1.98;;
69750;SDS011;57335;52.288;6.056;2022-07-29T00:14:50;6.10;;;1.92;;
69750;SDS011;57335;52.288;6.056;2022-07-29T00:17:17;4.30;;;1.92;;
69750;SDS011;57335;52.288;6.056;2022-07-29T00:19:44;4.90;;;1.70;;
69750;SDS011;57335;52.288;6.056;2022-07-29T00:22:10;5.45;;;1.67;;
69750;SDS011;57335;52.288;6.056;2022-07-29T00:24:37;5.95;;;2.08;;
69750;SDS011;57335;52.288;6.056;2022-07-29T00:27:03;7.00;;;2.00;;
69750;SDS011;57335;52.288;6.056;2022-07-29T00:29:30;6.32;;;2.03;;
69750;SDS011;57335;52.288;6.056;2022-07-29T00:31:59;6.90;;;2.42;;
69750;SDS011;57335;52.288;6.056;2022-07-29T00:34:26;7.93;;;2.13;;
69750;SDS011;57335;52.288;6.056;2022-07-29T00:36:52;5.60;;;2.13;;
69750;SDS011;57335;52.288;6.056;2022-07-29T00:39:18;7.38;;;2.17;;
69750;SDS011;57335;52.288;6.056;2022-07-29T00:41:45;7.65;;;2.20;;
69750;SDS011;57335;52.288;6.056;2022-07-29T00:44:11;4.78;;;1.98;;
69750;SDS011;57335;52.288;6.056;2022-07-29T00:46:38;11.80;;;2.38;;
69750;SDS011;57335;52.288;6.056;2022-07-29T00:49:04;8.25;;;2.47;;
69750;SDS011;57335;52.288;6.056;2022-07-29T00:51:31;6.00;;;2.30;;
69750;SDS011;57335;52.288;6.056;2022-07-29T00:53:59;4.90;;;2.10;;
69750;SDS011;57335;52.288;6.056;2022-07-29T00:56:25;6.53;;;2.25;;
69750;SDS011;57335;52.288;6.056;2022-07-29T00:58:52;8.20;;;2.85;;
69750;SDS011;57335;52.288;6.056;2022-07-29T01:01:22;7.05;;;2.20;;
69750;SDS011;57335;52.288;6.056;2022-07-29T01:03:48;6.47;;;2.63;;
69750;SDS011;57335;52.288;6.056;2022-07-29T01:06:15;6.55;;;2.40;;
69750;SDS011;57335;52.288;6.056;2022-07-29T01:08:45;7.40;;;2.25;;
69750;SDS011;57335;52.288;6.056;2022-07-29T01:11:12;6.07;;;2.20;;
69750;SDS011;57335;52.288;6.056;2022-07-29T01:13:41;5.38;;;2.45;;
69750;SDS011;57335;52.288;6.056;2022-07-29T01:16:17;6.32;;;2.10;;
69750;SDS011;57335;52.288;6.056;2022-07-29T01:18:52;8.68;;;2.72;;
69750;SDS011;57335;52.288;6.056;2022-07-29T01:27:00;5.72;;;2.17;;
69750;SDS011;57335;52.288;6.056;2022-07-29T01:29:48;5.07;;;2.08;;
69750;SDS011;57335;52.288;6.056;2022-07-29T01:32:22;6.28;;;2.25;;
69750;SDS011;57335;52.288;6.056;2022-07-29T01:34:56;6.22;;;2.40;;
69750;SDS011;57335;52.288;6.056;2022-07-29T01:40:29;5.38;;;2.03;;
69750;SDS011;57335;52.288;6.056;2022-07-29T01:43:02;6.00;;;2.30;;
69750;SDS011;57335;52.288;6.056;2022-07-29T01:45:43;5.97;;;2.35;;
69750;SDS011;57335;52.288;6.056;2022-07-29T01:48:15;7.32;;;2.30;;
69750;SDS011;57335;52.288;6.056;2022-07-29T01:50:53;6.95;;;2.50;;
69750;SDS011;57335;52.288;6.056;2022-07-29T01:53:30;7.00;;;2.40;;
69750;SDS011;57335;52.288;6.056;2022-07-29T01:56:03;8.77;;;2.47;;
69750;SDS011;57335;52.288;6.056;2022-07-29T01:58:31;5.60;;;2.53;;
69750;SDS011;57335;52.288;6.056;2022-07-29T02:00:58;5.22;;;2.25;;
69750;SDS011;57335;52.288;6.056;2022-07-29T02:03:27;5.53;;;2.35;;
69750;SDS011;57335;52.288;6.056;2022-07-29T02:05:54;5.95;;;2.40;;
69750;SDS011;57335;52.288;6.056;2022-07-29T02:08:23;7.20;;;2.30;;
69750;SDS011;57335;52.288;6.056;2022-07-29T02:10:51;5.82;;;2.35;;
69750;SDS011;57335;52.288;6.056;2022-07-29T02:13:18;6.63;;;2.22;;
69750;SDS011;57335;52.288;6.056;2022-07-29T02:15:47;5.97;;;2.47;;
69750;SDS011;57335;52.288;6.056;2022-07-29T02:18:16;7.40;;;2.65;;
69750;SDS011;57335;52.288;6.056;2022-07-29T02:20:44;7.45;;;2.60;;
69750;SDS011;57335;52.288;6.056;2022-07-29T02:23:14;5.90;;;2.28;;
69750;SDS011;57335;52.288;6.056;2022-07-29T02:25:44;6.80;;;2.53;;
69750;SDS011;57335;52.288;6.056;2022-07-29T02:28:15;6.65;;;2.28;;
69750;SDS011;57335;52.288;6.056;2022-07-29T02:30:44;8.30;;;2.40;;
69750;SDS011;57335;52.288;6.056;2022-07-29T02:33:13;7.25;;;2.50;;
69750;SDS011;57335;52.288;6.056;2022-07-29T02:35:42;7.00;;;2.45;;
69750;SDS011;57335;52.288;6.056;2022-07-29T02:38:12;7.32;;;2.58;;
69750;SDS011;57335;52.288;6.056;2022-07-29T02:40:40;6.35;;;2.33;;
69750;SDS011;57335;52.288;6.056;2022-07-29T02:43:08;6.00;;;2.30;;
69750;SDS011;57335;52.288;6.056;2022-07-29T02:45:36;9.07;;;2.60;;
69750;SDS011;57335;52.288;6.056;2022-07-29T02:48:06;4.68;;;2.05;;
69750;SDS011;57335;52.288;6.056;2022-07-29T02:50:38;9.10;;;2.38;;
69750;SDS011;57335;52.288;6.056;2022-07-29T02:53:14;7.18;;;2.65;;
69750;SDS011;57335;52.288;6.056;2022-07-29T02:55:45;6.47;;;2.42;;
69750;SDS011;57335;52.288;6.056;2022-07-29T02:58:35;7.93;;;2.47;;
69750;SDS011;57335;52.288;6.056;2022-07-29T03:01:12;8.40;;;2.33;;
69750;SDS011;57335;52.288;6.056;2022-07-29T03:03:47;7.25;;;2.58;;
69750;SDS011;57335;52.288;6.056;2022-07-29T03:06:15;7.22;;;2.70;;
69750;SDS011;57335;52.288;6.056;2022-07-29T03:09:03;4.75;;;2.22;;
69750;SDS011;57335;52.288;6.056;2022-07-29T03:11:38;7.78;;;2.47;;
69750;SDS011;57335;52.288;6.056;2022-07-29T03:14:16;6.68;;;2.33;;
69750;SDS011;57335;52.288;6.056;2022-07-29T03:16:44;7.20;;;2.70;;
69750;SDS011;57335;52.288;6.056;2022-07-29T03:19:12;8.57;;;2.47;;
69750;SDS011;57335;52.288;6.056;2022-07-29T03:21:39;6.78;;;2.42;;
69750;SDS011;57335;52.288;6.056;2022-07-29T03:24:05;6.65;;;2.40;;
69750;SDS011;57335;52.288;6.056;2022-07-29T03:26:36;6.35;;;2.33;;
69750;SDS011;57335;52.288;6.056;2022-07-29T03:29:02;6.20;;;2.42;;
69750;SDS011;57335;52.288;6.056;2022-07-29T03:31:29;6.82;;;2.63;;
69750;SDS011;57335;52.288;6.056;2022-07-29T03:33:56;6.30;;;2.45;;
69750;SDS011;57335;52.288;6.056;2022-07-29T03:36:22;6.57;;;2.42;;
69750;SDS011;57335;52.288;6.056;2022-07-29T03:38:48;7.90;;;2.65;;
69750;SDS011;57335;52.288;6.056;2022-07-29T03:41:15;6.80;;;2.67;;
69750;SDS011;57335;52.288;6.056;2022-07-29T03:46:15;8.50;;;2.60;;
69750;SDS011;57335;52.288;6.056;2022-07-29T03:48:45;6.43;;;2.60;;
69750;SDS011;57335;52.288;6.056;2022-07-29T03:51:14;6.95;;;2.50;;
69750;SDS011;57335;52.288;6.056;2022-07-29T03:53:41;6.10;;;2.35;;
69750;SDS011;57335;52.288;6.056;2022-07-29T03:56:07;7.88;;;2.70;;
69750;SDS011;57335;52.288;6.056;2022-07-29T03:58:36;7.90;;;2.47;;
69750;SDS011;57335;52.288;6.056;2022-07-29T04:01:05;8.27;;;2.70;;
69750;SDS011;57335;52.288;6.056;2022-07-29T04:03:32;7.60;;;2.83;;
69750;SDS011;57335;52.288;6.056;2022-07-29T04:06:01;7.18;;;2.58;;
69750;SDS011;57335;52.288;6.056;2022-07-29T04:08:29;6.50;;;2.60;;
69750;SDS011;57335;52.288;6.056;2022-07-29T04:10:55;9.75;;;2.63;;
69750;SDS011;57335;52.288;6.056;2022-07-29T04:13:22;5.85;;;2.80;;
69750;SDS011;57335;52.288;6.056;2022-07-29T04:15:48;7.10;;;2.78;;
69750;SDS011;57335;52.288;6.056;2022-07-29T04:18:15;7.25;;;2.72;;
69750;SDS011;57335;52.288;6.056;2022-07-29T04:20:41;7.55;;;2.65;;
69750;SDS011;57335;52.288;6.056;2022-07-29T04:23:08;8.63;;;3.10;;
69750;SDS011;57335;52.288;6.056;2022-07-29T04:25:38;6.82;;;2.67;;
69750;SDS011;57335;52.288;6.056;2022-07-29T04:28:05;7.13;;;2.75;;
69750;SDS011;57335;52.288;6.056;2022-07-29T04:30:33;7.13;;;2.80;;
69750;SDS011;57335;52.288;6.056;2022-07-29T04:33:01;11.93;;;2.83;;
69750;SDS011;57335;52.288;6.056;2022-07-29T04:35:29;7.38;;;2.50;;
69750;SDS011;57335;52.288;6.056;2022-07-29T04:38:04;6.80;;;2.70;;
69750;SDS011;57335;52.288;6.056;2022-07-29T04:40:31;7.47;;;2.55;;
69750;SDS011;57335;52.288;6.056;2022-07-29T04:42:59;7.40;;;2.60;;
69750;SDS011;57335;52.288;6.056;2022-07-29T04:45:31;5.65;;;2.38;;
69750;SDS011;57335;52.288;6.056;2022-07-29T04:47:57;7.65;;;2.80;;
69750;SDS011;57335;52.288;6.056;2022-07-29T04:50:24;8.88;;;2.63;;
69750;SDS011;57335;52.288;6.056;2022-07-29T04:52:50;8.38;;;2.75;;
69750;SDS011;57335;52.288;6.056;2022-07-29T04:55:16;8.27;;;2.35;;
69750;SDS011;57335;52.288;6.056;2022-07-29T04:57:43;7.00;;;2.67;;
69750;SDS011;57335;52.288;6.056;2022-07-29T05:00:10;7.13;;;2.90;;
69750;SDS011;57335;52.288;6.056;2022-07-29T05:02:37;7.90;;;3.35;;
69750;SDS011;57335;52.288;6.056;2022-07-29T05:05:04;7.10;;;2.90;;
69750;SDS011;57335;52.288;6.056;2022-07-29T05:07:31;7.15;;;2.70;;
69750;SDS011;57335;52.288;6.056;2022-07-29T05:09:58;7.13;;;2.85;;
69750;SDS011;57335;52.288;6.056;2022-07-29T05:12:25;8.73;;;4.28;;
69750;SDS011;57335;52.288;6.056;2022-07-29T05:14:52;10.30;;;3.30;;
69750;SDS011;57335;52.288;6.056;2022-07-29T05:17:19;10.32;;;3.22;;
69750;SDS011;57335;52.288;6.056;2022-07-29T05:19:46;6.00;;;2.63;;
69750;SDS011;57335;52.288;6.056;2022-07-29T05:22:12;7.22;;;2.90;;
69750;SDS011;57335;52.288;6.056;2022-07-29T05:24:38;8.07;;;3.28;;
69750;SDS011;57335;52.288;6.056;2022-07-29T05:27:05;9.20;;;3.33;;
69750;SDS011;57335;52.288;6.056;2022-07-29T05:29:31;8.23;;;3.10;;
69750;SDS011;57335;52.288;6.056;2022-07-29T05:32:10;7.82;;;3.30;;
69750;SDS011;57335;52.288;6.056;2022-07-29T05:34:37;11.32;;;3.38;;
69750;SDS011;57335;52.288;6.056;2022-07-29T05:37:17;7.47;;;3.35;;
69750;SDS011;57335;52.288;6.056;2022-07-29T05:39:44;9.68;;;3.42;;
69750;SDS011;57335;52.288;6.056;2022-07-29T05:42:14;10.45;;;3.60;;
69750;SDS011;57335;52.288;6.056;2022-07-29T05:44:40;7.47;;;3.42;;
69750;SDS011;57335;52.288;6.056;2022-07-29T05:47:07;9.02;;;3.63;;
69750;SDS011;57335;52.288;6.056;2022-07-29T05:49:33;8.52;;;3.42;;
69750;SDS011;57335;52.288;6.056;2022-07-29T05:52:00;8.10;;;3.63;;
69750;SDS011;57335;52.288;6.056;2022-07-29T05:54:26;9.75;;;3.67;;
69750;SDS011;57335;52.288;6.056;2022-07-29T05:56:53;10.93;;;3.88;;
69750;SDS011;57335;52.288;6.056;2022-07-29T05:59:19;8.48;;;3.95;;
69750;SDS011;57335;52.288;6.056;2022-07-29T06:01:45;9.77;;;3.30;;
69750;SDS011;57335;52.288;6.056;2022-07-29T06:04:13;8.38;;;3.40;;
69750;SDS011;57335;52.288;6.056;2022-07-29T06:06:40;10.18;;;3.58;;
69750;SDS011;57335;52.288;6.056;2022-07-29T06:09:06;7.35;;;3.30;;
69750;SDS011;57335;52.288;6.056;2022-07-29T06:11:38;8.73;;;3.80;;
69750;SDS011;57335;52.288;6.056;2022-07-29T06:14:04;9.70;;;3.55;;
69750;SDS011;57335;52.288;6.056;2022-07-29T06:16:31;8.07;;;3.40;;
69750;SDS011;57335;52.288;6.056;2022-07-29T06:18:57;8.95;;;3.45;;
69750;SDS011;57335;52.288;6.056;2022-07-29T06:21:24;8.93;;;3.20;;
69750;SDS011;57335;52.288;6.056;2022-07-29T06:23:50;10.00;;;3.38;;
69750;SDS011;57335;52.288;6.056;2022-07-29T06:26:16;8.93;;;3.58;;
69750;SDS011;57335;52.288;6.056;2022-07-29T06:28:43;8.38;;;3.35;;
69750;SDS011;57335;52.288;6.056;2022-07-29T06:31:09;7.65;;;3.33;;
69750;SDS011;57335;52.288;6.056;2022-07-29T06:33:36;9.48;;;3.80;;
69750;SDS011;57335;52.288;6.056;2022-07-29T06:36:05;8.20;;;3.35;;
69750;SDS011;57335;52.288;6.056;2022-07-29T06:38:32;8.10;;;3.38;;
69750;SDS011;57335;52.288;6.056;2022-07-29T06:41:07;8.13;;;3.28;;
69750;SDS011;57335;52.288;6.056;2022-07-29T06:43:37;9.48;;;3.60;;
69750;SDS011;57335;52.288;6.056;2022-07-29T06:46:20;8.75;;;3.40;;
69750;SDS011;57335;52.288;6.056;2022-07-29T06:48:47;9.18;;;3.60;;
69750;SDS011;57335;52.288;6.056;2022-07-29T06:51:14;7.25;;;3.58;;
69750;SDS011;57335;52.288;6.056;2022-07-29T06:53:41;7.93;;;3.70;;
69750;SDS011;57335;52.288;6.056;2022-07-29T06:56:26;9.23;;;3.63;;
69750;SDS011;57335;52.288;6.056;2022-07-29T06:58:52;8.52;;;3.28;;
69750;SDS011;57335;52.288;6.056;2022-07-29T07:01:19;7.82;;;3.30;;
69750;SDS011;57335;52.288;6.056;2022-07-29T07:03:46;9.98;;;3.63;;
69750;SDS011;57335;52.288;6.056;2022-07-29T07:06:13;10.40;;;3.60;;
69750;SDS011;57335;52.288;6.056;2022-07-29T07:08:40;9.40;;;3.53;;
69750;SDS011;57335;52.288;6.056;2022-07-29T07:11:06;9.43;;;3.58;;
69750;SDS011;57335;52.288;6.056;2022-07-29T07:13:33;10.18;;;3.75;;
69750;SDS011;57335;52.288;6.056;2022-07-29T07:16:01;6.85;;;3.40;;
69750;SDS011;57335;52.288;6.056;2022-07-29T07:18:29;7.70;;;3.38;;
69750;SDS011;57335;52.288;6.056;2022-07-29T07:20:55;11.00;;;3.22;;
69750;SDS011;57335;52.288;6.056;2022-07-29T07:23:22;6.95;;;3.10;;
69750;SDS011;57335;52.288;6.056;2022-07-29T07:25:49;8.23;;;3.10;;
69750;SDS011;57335;52.288;6.056;2022-07-29T07:28:15;9.32;;;3.20;;
69750;SDS011;57335;52.288;6.056;2022-07-29T07:30:42;8.45;;;3.45;;
69750;SDS011;57335;52.288;6.056;2022-07-29T07:33:08;8.70;;;3.10;;
69750;SDS011;57335;52.288;6.056;2022-07-29T07:35:35;8.02;;;3.30;;
69750;SDS011;57335;52.288;6.056;2022-07-29T07:38:01;8.50;;;3.40;;
69750;SDS011;57335;52.288;6.056;2022-07-29T07:40:28;8.18;;;3.33;;
69750;SDS011;57335;52.288;6.056;2022-07-29T07:42:54;7.90;;;3.20;;
69750;SDS011;57335;52.288;6.056;2022-07-29T07:45:21;7.55;;;3.13;;
69750;SDS011;57335;52.288;6.056;2022-07-29T07:47:47;9.57;;;3.40;;
69750;SDS011;57335;52.288;6.056;2022-07-29T07:50:14;7.00;;;3.13;;
69750;SDS011;57335;52.288;6.056;2022-07-29T07:52:47;8.65;;;3.40;;
69750;SDS011;57335;52.288;6.056;2022-07-29T07:55:15;7.28;;;3.35;;
69750;SDS011;57335;52.288;6.056;2022-07-29T07:57:43;7.78;;;3.20;;
69750;SDS011;57335;52.288;6.056;2022-07-29T08:00:09;8.18;;;3.38;;
69750;SDS011;57335;52.288;6.056;2022-07-29T08:02:37;7.18;;;3.03;;
69750;SDS011;57335;52.288;6.056;2022-07-29T08:05:04;8.00;;;3.00;;
69750;SDS011;57335;52.288;6.056;2022-07-29T08:07:37;7.68;;;3.17;;
69750;SDS011;57335;52.288;6.056;2022-07-29T08:10:06;10.20;;;3.40;;
69750;SDS011;57335;52.288;6.056;2022-07-29T08:12:33;7.35;;;2.97;;
69750;SDS011;57335;52.288;6.056;2022-07-29T08:15:00;8.02;;;2.97;;
69750;SDS011;57335;52.288;6.056;2022-07-29T08:17:27;9.80;;;3.20;;
69750;SDS011;57335;52.288;6.056;2022-07-29T08:19:53;8.07;;;3.10;;
69750;SDS011;57335;52.288;6.056;2022-07-29T08:22:19;10.90;;;3.30;;
69750;SDS011;57335;52.288;6.056;2022-07-29T08:24:46;7.18;;;2.97;;
69750;SDS011;57335;52.288;6.056;2022-07-29T08:27:13;8.70;;;3.33;;
69750;SDS011;57335;52.288;6.056;2022-07-29T08:29:59;7.68;;;3.08;;
69750;SDS011;57335;52.288;6.056;2022-07-29T08:32:26;7.85;;;2.95;;
69750;SDS011;57335;52.288;6.056;2022-07-29T08:35:12;7.57;;;2.95;;
69750;SDS011;57335;52.288;6.056;2022-07-29T08:37:38;6.95;;;2.83;;
69750;SDS011;57335;52.288;6.056;2022-07-29T08:40:05;6.90;;;3.08;;
69750;SDS011;57335;52.288;6.056;2022-07-29T08:42:32;8.70;;;3.10;;
69750;SDS011;57335;52.288;6.056;2022-07-29T08:44:58;7.75;;;3.00;;
69750;SDS011;57335;52.288;6.056;2022-07-29T08:47:25;8.65;;;3.20;;
69750;SDS011;57335;52.288;6.056;2022-07-29T08:49:53;7.82;;;3.20;;
69750;SDS011;57335;52.288;6.056;2022-07-29T08:52:20;9.40;;;3.40;;
69750;SDS011;57335;52.288;6.056;2022-07-29T08:54:51;8.07;;;3.10;;
69750;SDS011;57335;52.288;6.056;2022-07-29T08:57:19;9.90;;;3.10;;
69750;SDS011;57335;52.288;6.056;2022-07-29T08:59:47;7.68;;;3.15;;
69750;SDS011;57335;52.288;6.056;2022-07-29T09:02:19;7.65;;;3.15;;
69750;SDS011;57335;52.288;6.056;2022-07-29T09:04:47;7.65;;;3.63;;
69750;SDS011;57335;52.288;6.056;2022-07-29T09:07:15;8.85;;;3.30;;
69750;SDS011;57335;52.288;6.056;2022-07-29T09:09:42;7.35;;;3.20;;
69750;SDS011;57335;52.288;6.056;2022-07-29T09:12:09;8.13;;;3.13;;
69750;SDS011;57335;52.288;6.056;2022-07-29T09:14:54;8.52;;;3.20;;
69750;SDS011;57335;52.288;6.056;2022-07-29T09:17:43;7.57;;;3.03;;
69750;SDS011;57335;52.288;6.056;2022-07-29T09:20:16;8.05;;;3.05;;
69750;SDS011;57335;52.288;6.056;2022-07-29T09:25:12;7.63;;;2.92;;
69750;SDS011;57335;52.288;6.056;2022-07-29T09:27:39;7.68;;;3.03;;
69750;SDS011;57335;52.288;6.056;2022-07-29T09:30:06;7.28;;;3.13;;
69750;SDS011;57335;52.288;6.056;2022-07-29T09:32:35;8.35;;;3.38;;
69750;SDS011;57335;52.288;6.056;2022-07-29T09:35:21;7.35;;;3.10;;
69750;SDS011;57335;52.288;6.056;2022-07-29T09:37:48;10.10;;;3.63;;
69750;SDS011;57335;52.288;6.056;2022-07-29T09:40:19;9.45;;;3.60;;
69750;SDS011;57335;52.288;6.056;2022-07-29T09:42:46;7.35;;;3.28;;
69750;SDS011;57335;52.288;6.056;2022-07-29T09:45:25;7.60;;;3.20;;
69750;SDS011;57335;52.288;6.056;2022-07-29T09:47:56;7.93;;;3.20;;
69750;SDS011;57335;52.288;6.056;2022-07-29T09:50:23;9.93;;;3.70;;
69750;SDS011;57335;52.288;6.056;2022-07-29T09:53:06;9.45;;;3.60;;
69750;SDS011;57335;52.288;6.056;2022-07-29T09:55:40;7.57;;;3.65;;
69750;SDS011;57335;52.288;6.056;2022-07-29T09:58:18;8.32;;;3.53;;
69750;SDS011;57335;52.288;6.056;2022-07-29T10:00:48;8.40;;;3.42;;
69750;SDS011;57335;52.288;6.056;2022-07-29T10:03:16;7.95;;;3.20;;
69750;SDS011;57335;52.288;6.056;2022-07-29T10:05:44;6.90;;;3.30;;
69750;SDS011;57335;52.288;6.056;2022-07-29T10:08:11;9.13;;;3.30;;
69750;SDS011;57335;52.288;6.056;2022-07-29T10:10:41;9.02;;;3.47;;
69750;SDS011;57335;52.288;6.056;2022-07-29T10:13:09;7.13;;;3.30;;
69750;SDS011;57335;52.288;6.056;2022-07-29T10:15:41;9.93;;;3.38;;
69750;SDS011;57335;52.288;6.056;2022-07-29T10:18:09;8.05;;;3.58;;
69750;SDS011;57335;52.288;6.056;2022-07-29T10:20:38;17.38;;;4.20;;
69750;SDS011;57335;52.288;6.056;2022-07-29T10:23:05;9.25;;;3.55;;
69750;SDS011;57335;52.288;6.056;2022-07-29T10:25:32;8.05;;;3.67;;
69750;SDS011;57335;52.288;6.056;2022-07-29T10:27:58;9.40;;;3.53;;
69750;SDS011;57335;52.288;6.056;2022-07-29T10:30:25;10.93;;;4.00;;
69750;SDS011;57335;52.288;6.056;2022-07-29T10:42:05;8.20;;;3.33;;
69750;SDS011;57335;52.288;6.056;2022-07-29T10:44:39;8.05;;;3.30;;
69750;SDS011;57335;52.288;6.056;2022-07-29T10:47:07;7.80;;;3.42;;
69750;SDS011;57335;52.288;6.056;2022-07-29T10:49:35;7.57;;;3.42;;
69750;SDS011;57335;52.288;6.056;2022-07-29T10:52:06;8.43;;;3.42;;
69750;SDS011;57335;52.288;6.056;2022-07-29T10:59:49;8.55;;;3.47;;
69750;SDS011;57335;52.288;6.056;2022-07-29T11:05:14;7.95;;;3.00;;
69750;SDS011;57335;52.288;6.056;2022-07-29T11:10:46;6.60;;;2.83;;
69750;SDS011;57335;52.288;6.056;2022-07-29T11:13:44;6.20;;;3.00;;
69750;SDS011;57335;52.288;6.056;2022-07-29T11:16:11;7.15;;;3.33;;
69750;SDS011;57335;52.288;6.056;2022-07-29T11:19:24;9.30;;;3.30;;
69750;SDS011;57335;52.288;6.056;2022-07-29T11:21:39;7.57;;;2.95;;
69750;SDS011;57335;52.288;6.056;2022-07-29T11:24:21;7.07;;;2.70;;
69750;SDS011;57335;52.288;6.056;2022-07-29T11:27:14;7.43;;;2.90;;
69750;SDS011;57335;52.288;6.056;2022-07-29T11:29:54;7.93;;;3.20;;
69750;SDS011;57335;52.288;6.056;2022-07-29T11:32:34;8.68;;;3.10;;
69750;SDS011;57335;52.288;6.056;2022-07-29T11:35:12;7.75;;;3.20;;
69750;SDS011;57335;52.288;6.056;2022-07-29T11:43:47;8.43;;;3.17;;
69750;SDS011;57335;52.288;6.056;2022-07-29T11:49:19;8.13;;;3.22;;
69750;SDS011;57335;52.288;6.056;2022-07-29T11:51:58;10.60;;;3.30;;
69750;SDS011;57335;52.288;6.056;2022-07-29T11:54:30;8.43;;;3.28;;
69750;SDS011;57335;52.288;6.056;2022-07-29T11:57:19;8.50;;;3.13;;
69750;SDS011;57335;52.288;6.056;2022-07-29T11:59:47;8.57;;;3.05;;
69750;SDS011;57335;52.288;6.056;2022-07-29T12:02:14;6.43;;;3.00;;
69750;SDS011;57335;52.288;6.056;2022-07-29T12:05:01;7.00;;;3.17;;
69750;SDS011;57335;52.288;6.056;2022-07-29T12:07:36;9.25;;;3.08;;
69750;SDS011;57335;52.288;6.056;2022-07-29T12:10:06;7.80;;;2.92;;
69750;SDS011;57335;52.288;6.056;2022-07-29T12:12:44;6.60;;;2.78;;
69750;SDS011;57335;52.288;6.056;2022-07-29T12:15:18;8.13;;;3.58;;
69750;SDS011;57335;52.288;6.056;2022-07-29T12:17:46;8.13;;;3.30;;
69750;SDS011;57335;52.288;6.056;2022-07-29T12:20:13;7.15;;;2.92;;
69750;SDS011;57335;52.288;6.056;2022-07-29T12:22:50;8.05;;;3.58;;
69750;SDS011;57335;52.288;6.056;2022-07-29T12:25:16;8.70;;;4.00;;
69750;SDS011;57335;52.288;6.056;2022-07-29T12:28:06;9.32;;;3.85;;
69750;SDS011;57335;52.288;6.056;2022-07-29T12:30:43;8.93;;;3.47;;
69750;SDS011;57335;52.288;6.056;2022-07-29T12:35:39;10.25;;;3.30;;
69750;SDS011;57335;52.288;6.056;2022-07-29T12:38:08;8.73;;;3.25;;
69750;SDS011;57335;52.288;6.056;2022-07-29T12:40:36;7.70;;;3.65;;
69750;SDS011;57335;52.288;6.056;2022-07-29T12:43:13;7.88;;;3.15;;
69750;SDS011;57335;52.288;6.056;2022-07-29T12:45:49;8.90;;;3.30;;
69750;SDS011;57335;52.288;6.056;2022-07-29T12:48:18;9.90;;;3.28;;
69750;SDS011;57335;52.288;6.056;2022-07-29T12:51:01;7.20;;;2.72;;
69750;SDS011;57335;52.288;6.056;2022-07-29T12:53:29;8.60;;;2.85;;
69750;SDS011;57335;52.288;6.056;2022-07-29T12:55:56;6.78;;;2.80;;
69750;SDS011;57335;52.288;6.056;2022-07-29T13:01:11;7.25;;;2.63;;
69750;SDS011;57335;52.288;6.056;2022-07-29T13:03:52;7.50;;;2.60;;
69750;SDS011;57335;52.288;6.056;2022-07-29T13:06:41;7.63;;;2.83;;
69750;SDS011;57335;52.288;6.056;2022-07-29T13:09:15;7.45;;;3.13;;
69750;SDS011;57335;52.288;6.056;2022-07-29T13:11:47;8.93;;;2.90;;
69750;SDS011;57335;52.288;6.056;2022-07-29T13:14:34;7.65;;;2.60;;
69750;SDS011;57335;52.288;6.056;2022-07-29T13:17:05;6.78;;;2.50;;
69750;SDS011;57335;52.288;6.056;2022-07-29T13:19:41;8.38;;;2.40;;
69750;SDS011;57335;52.288;6.056;2022-07-29T13:27:16;7.90;;;2.30;;
69750;SDS011;57335;52.288;6.056;2022-07-29T13:29:44;7.40;;;3.00;;
69750;SDS011;57335;52.288;6.056;2022-07-29T13:32:11;8.32;;;2.53;;
69750;SDS011;57335;52.288;6.056;2022-07-29T13:34:37;5.80;;;2.38;;
69750;SDS011;57335;52.288;6.056;2022-07-29T13:37:04;8.88;;;2.63;;
69750;SDS011;57335;52.288;6.056;2022-07-29T13:39:31;6.68;;;2.45;;
69750;SDS011;57335;52.288;6.056;2022-07-29T13:41:57;5.65;;;2.60;;
69750;SDS011;57335;52.288;6.056;2022-07-29T13:44:25;5.35;;;2.20;;
69750;SDS011;57335;52.288;6.056;2022-07-29T13:46:51;7.90;;;2.85;;
69750;SDS011;57335;52.288;6.056;2022-07-29T13:49:18;7.53;;;2.97;;
69750;SDS011;57335;52.288;6.056;2022-07-29T13:51:44;6.22;;;2.33;;
69750;SDS011;57335;52.288;6.056;2022-07-29T13:54:11;7.65;;;2.55;;
69750;SDS011;57335;52.288;6.056;2022-07-29T13:56:37;5.43;;;2.45;;
69750;SDS011;57335;52.288;6.056;2022-07-29T13:59:03;9.02;;;2.70;;
69750;SDS011;57335;52.288;6.056;2022-07-29T14:01:30;6.03;;;2.50;;
69750;SDS011;57335;52.288;6.056;2022-07-29T14:03:56;6.88;;;2.28;;
69750;SDS011;57335;52.288;6.056;2022-07-29T14:06:23;7.57;;;2.65;;
69750;SDS011;57335;52.288;6.056;2022-07-29T14:08:50;5.45;;;2.40;;
69750;SDS011;57335;52.288;6.056;2022-07-29T14:11:16;7.93;;;2.88;;
69750;SDS011;57335;52.288;6.056;2022-07-29T14:13:43;6.93;;;2.65;;
69750;SDS011;57335;52.288;6.056;2022-07-29T14:16:09;6.68;;;2.53;;
69750;SDS011;57335;52.288;6.056;2022-07-29T14:18:36;7.57;;;2.40;;
69750;SDS011;57335;52.288;6.056;2022-07-29T14:21:02;7.07;;;2.90;;
69750;SDS011;57335;52.288;6.056;2022-07-29T14:23:29;8.43;;;2.70;;
69750;SDS011;57335;52.288;6.056;2022-07-29T14:25:55;8.30;;;2.70;;
69750;SDS011;57335;52.288;6.056;2022-07-29T14:28:22;10.95;;;2.88;;
69750;SDS011;57335;52.288;6.056;2022-07-29T14:30:48;7.07;;;2.53;;
69750;SDS011;57335;52.288;6.056;2022-07-29T14:33:14;6.90;;;2.65;;
69750;SDS011;57335;52.288;6.056;2022-07-29T14:35:41;6.43;;;2.10;;
69750;SDS011;57335;52.288;6.056;2022-07-29T14:38:07;8.02;;;2.42;;
69750;SDS011;57335;52.288;6.056;2022-07-29T14:40:33;6.85;;;2.58;;
69750;SDS011;57335;52.288;6.056;2022-07-29T14:43:00;7.60;;;2.60;;
69750;SDS011;57335;52.288;6.056;2022-07-29T14:45:27;7.60;;;2.30;;
69750;SDS011;57335;52.288;6.056;2022-07-29T14:47:53;5.40;;;2.15;;
69750;SDS011;57335;52.288;6.056;2022-07-29T14:50:23;9.15;;;2.95;;
69750;SDS011;57335;52.288;6.056;2022-07-29T14:52:57;6.78;;;2.35;;
69750;SDS011;57335;52.288;6.056;2022-07-29T14:55:24;5.75;;;2.30;;
69750;SDS011;57335;52.288;6.056;2022-07-29T14:57:50;10.05;;;2.10;;
69750;SDS011;57335;52.288;6.056;2022-07-29T15:00:17;4.85;;;1.95;;
69750;SDS011;57335;52.288;6.056;2022-07-29T15:02:44;4.90;;;2.00;;
69750;SDS011;57335;52.288;6.056;2022-07-29T15:05:27;4.22;;;2.05;;
69750;SDS011;57335;52.288;6.056;2022-07-29T15:07:54;4.55;;;2.00;;
69750;SDS011;57335;52.288;6.056;2022-07-29T15:10:20;7.60;;;2.00;;
69750;SDS011;57335;52.288;6.056;2022-07-29T15:12:49;5.30;;;2.00;;
69750;SDS011;57335;52.288;6.056;2022-07-29T15:15:16;5.68;;;2.22;;
69750;SDS011;57335;52.288;6.056;2022-07-29T15:17:42;13.07;;;2.63;;
69750;SDS011;57335;52.288;6.056;2022-07-29T15:20:09;7.07;;;1.80;;
69750;SDS011;57335;52.288;6.056;2022-07-29T15:22:36;5.60;;;1.80;;
69750;SDS011;57335;52.288;6.056;2022-07-29T15:25:02;7.63;;;2.13;;
69750;SDS011;57335;52.288;6.056;2022-07-29T15:27:29;5.28;;;2.10;;
69750;SDS011;57335;52.288;6.056;2022-07-29T15:29:55;4.75;;;1.95;;
69750;SDS011;57335;52.288;6.056;2022-07-29T15:32:21;6.38;;;1.90;;
69750;SDS011;57335;52.288;6.056;2022-07-29T15:34:48;7.68;;;2.05;;
69750;SDS011;57335;52.288;6.056;2022-07-29T15:37:14;5.68;;;2.00;;
69750;SDS011;57335;52.288;6.056;2022-07-29T15:39:41;3.90;;;1.80;;
69750;SDS011;57335;52.288;6.056;2022-07-29T15:42:07;7.75;;;2.00;;
69750;SDS011;57335;52.288;6.056;2022-07-29T15:44:33;6.57;;;1.98;;
69750;SDS011;57335;52.288;6.056;2022-07-29T15:47:00;5.80;;;2.00;;
69750;SDS011;57335;52.288;6.056;2022-07-29T15:49:27;5.68;;;1.88;;
69750;SDS011;57335;52.288;6.056;2022-07-29T15:52:11;5.43;;;1.92;;
69750;SDS011;57335;52.288;6.056;2022-07-29T15:54:38;2.58;;;1.50;;
69750;SDS011;57335;52.288;6.056;2022-07-29T15:57:05;5.43;;;1.95;;